• Join FlightAware (Why Join?)
  • Login
  • US Flag 
05:41AM EDT


 

Airport Tracker/Info


-or-


 

Live Flight TrackerFlight Track Log ✈ TUS8481 ✈ 30-Apr-2013 ✈ KMIA - SBKP / VCP

Flight Track Log - Related Links

Times and Time Zones

All times are in EDT time to prevent confusion due to time zone crossing. See the TUS8481 flight status page for this flight to view local times or setup timezone preferences in your user account.

Time Position Orientation Groundspeed Altitude Reporting Facility
EDT Latitude Longitude Course Direction KTS MPH feet Rate Location/Type
01:19AM 25.7836 -80.2742 94° East 188 216 800  Level Miami Center
01:20AM 25.7806 -80.2208 94° East 181 208 3,300 1,920 Climbing Miami Center
01:22AM 25.7581 -80.1094 103° East 247 284 5,800 2,040 Climbing Miami Center
01:23AM 25.7389 -80.0236 104° East 257 296 8,600 2,640 Climbing Miami Center
01:24AM 25.7158 -79.9378 107° East 271 312 11,000 1,800 Climbing Miami Center
01:25AM 25.6525 -79.8600 132° Southeast 308 354 12,300 1,500 Climbing Miami Center
01:26AM 25.5642 -79.7867 143° Southeast 343 395 14,100 2,100 Climbing Miami Center
01:27AM 25.4697 -79.7083 143° Southeast 388 447 16,500 2,280 Climbing Miami Center
01:28AM 25.3753 -79.6256 142° Southeast 419 482 18,700 2,160 Climbing Miami Center
01:29AM 25.2744 -79.5406 143° Southeast 440 506 20,800 1,800 Climbing Miami Center
01:30AM 25.1714 -79.4489 141° Southeast 463 533 22,400 1,500 Climbing Miami Center
01:31AM 25.0664 -79.3594 142° Southeast 476 548 23,900 1,500 Climbing Miami Center
01:32AM 24.9553 -79.2633 142° Southeast 490 564 25,400 1,740 Climbing Miami Center
01:33AM 24.8378 -79.1694 144° Southeast 510 587 27,400 1,920 Climbing Miami Center
01:34AM 24.7264 -79.0736 142° Southeast 510 587 29,300 1,800 Climbing Miami Center
01:35AM 24.6169 -78.9800 142° Southeast 515 593 31,100 1,500 Climbing Miami Center
01:36AM 24.5033 -78.8844 143° Southeast 515 593 32,400 900 Climbing Miami Center
01:37AM 24.3897 -78.7892 143° Southeast 510 587 33,000 300 Climbing Miami Center
01:38AM 24.2781 -78.6961 143° Southeast 518 596 33,000  Level Miami Center
01:39AM 24.1600 -78.5967 142° Southeast 518 596 33,000  Level Miami Center
01:40AM 24.0503 -78.5064 143° Southeast 518 596 33,000  Level Miami Center
01:42AM 24.1012 -78.5239 331° Northwest  Level FlightAware Approximate
01:49AM 24.8769 -78.9933 331° Northwest  Level FlightAware Approximate
01:50AM 24.9875 -79.0610 331° Northwest  Level FlightAware Approximate
01:51AM 25.0980 -79.1288 331° Northwest  Level FlightAware Approximate
01:52AM 25.2086 -79.1967 331° Northwest  Level FlightAware Approximate
01:53AM 25.3191 -79.2648 331° Northwest  Level FlightAware Approximate
01:54AM 25.4296 -79.3329 331° Northwest  Level FlightAware Approximate
01:55AM 25.5401 -79.4013 331° Northwest  Level FlightAware Approximate
01:56AM 25.6505 -79.4697 331° Northwest  Level FlightAware Approximate
01:57AM 25.7609 -79.5382 331° Northwest  Level FlightAware Approximate
01:58AM 25.8709 -79.6075 330° Northwest  Level FlightAware Approximate
01:59AM 25.9805 -79.6778 330° Northwest  Level FlightAware Approximate
02:00AM 26.0898 -79.7487 329° Northwest  Level FlightAware Approximate
02:01AM 26.1984 -79.8210 329° Northwest  Level FlightAware Approximate
02:02AM 26.3069 -79.8934 329° Northwest  Level FlightAware Approximate
02:03AM 26.4172 -79.9625 333° Northwest  Level FlightAware Approximate
02:04AM 26.5295 -80.0275 333° Northwest  Level FlightAware Approximate
02:05AM 26.6418 -80.0926 333° Northwest  Level FlightAware Approximate
02:06AM 26.6181 -80.0654 145° Southeast  Level FlightAware Approximate
02:07AM 26.5145 -79.9842 145° Southeast  Level FlightAware Approximate
02:08AM 26.4109 -79.9031 145° Southeast  Level FlightAware Approximate
02:09AM 26.3073 -79.8222 145° Southeast  Level FlightAware Approximate
02:10AM 26.2036 -79.7414 145° Southeast  Level FlightAware Approximate
02:11AM 26.0998 -79.6608 145° Southeast  Level FlightAware Approximate
02:12AM 25.9964 -79.5798 138° Southeast  Level FlightAware Approximate
02:13AM 25.8941 -79.4972 145° Southeast  Level FlightAware Approximate
02:14AM 25.7907 -79.4163 145° Southeast  Level FlightAware Approximate
02:15AM 25.6877 -79.3348 145° Southeast  Level FlightAware Approximate
02:16AM 25.5846 -79.2535 145° Southeast  Level FlightAware Approximate
02:17AM 25.4815 -79.1723 145° Southeast  Level FlightAware Approximate
02:18AM 25.3784 -79.0911 145° Southeast  Level FlightAware Approximate
02:19AM 25.2753 -79.0101 145° Southeast  Level FlightAware Approximate
02:20AM 25.1721 -78.9292 145° Southeast  Level FlightAware Approximate
02:21AM 25.0689 -78.8484 145° Southeast  Level FlightAware Approximate
02:22AM 24.9656 -78.7678 145° Southeast  Level FlightAware Approximate
02:23AM 24.8622 -78.6873 145° Southeast  Level FlightAware Approximate
02:24AM 24.7588 -78.6071 145° Southeast  Level FlightAware Approximate
02:25AM 24.6553 -78.5270 145° Southeast  Level FlightAware Approximate
02:26AM 24.5518 -78.4471 145° Southeast  Level FlightAware Approximate
02:27AM 24.4482 -78.3672 145° Southeast  Level FlightAware Approximate
02:28AM 24.3446 -78.2875 145° Southeast  Level FlightAware Approximate
02:29AM 24.2410 -78.2080 145° Southeast  Level FlightAware Approximate
02:30AM 24.1373 -78.1285 145° Southeast  Level FlightAware Approximate
02:31AM 24.0356 -78.0463 143° Southeast  Level FlightAware Approximate
02:32AM 23.9327 -77.9657 145° Southeast  Level FlightAware Approximate
02:33AM 23.8287 -77.8870 145° Southeast  Level FlightAware Approximate
02:34AM 23.7246 -77.8085 145° Southeast  Level FlightAware Approximate
02:35AM 23.6204 -77.7300 145° Southeast  Level FlightAware Approximate
02:36AM 23.5163 -77.6517 145° Southeast  Level FlightAware Approximate
02:37AM 23.4121 -77.5735 145° Southeast  Level FlightAware Approximate
02:38AM 23.3078 -77.4955 145° Southeast  Level FlightAware Approximate
02:39AM 23.2036 -77.4175 146° Southeast  Level FlightAware Approximate
02:40AM 23.0992 -77.3397 146° Southeast  Level FlightAware Approximate
02:41AM 22.9949 -77.2620 146° Southeast  Level FlightAware Approximate
02:42AM 22.8905 -77.1845 146° Southeast  Level FlightAware Approximate
02:43AM 22.7861 -77.1070 146° Southeast  Level FlightAware Approximate
02:44AM 22.6816 -77.0297 146° Southeast  Level FlightAware Approximate
02:45AM 22.5771 -76.9525 146° Southeast  Level FlightAware Approximate
02:46AM 22.4725 -76.8754 146° Southeast  Level FlightAware Approximate
02:47AM 22.3680 -76.7983 146° Southeast  Level FlightAware Approximate
02:48AM 22.2635 -76.7213 146° Southeast  Level FlightAware Approximate
02:49AM 22.1588 -76.6445 146° Southeast  Level FlightAware Approximate
02:50AM 22.0542 -76.5678 146° Southeast  Level FlightAware Approximate
02:51AM 21.9495 -76.4912 146° Southeast  Level FlightAware Approximate
02:52AM 21.8448 -76.4147 146° Southeast  Level FlightAware Approximate
02:53AM 21.7401 -76.3383 146° Southeast  Level FlightAware Approximate
02:54AM 21.6353 -76.2620 146° Southeast  Level FlightAware Approximate
02:55AM 21.5305 -76.1858 146° Southeast  Level FlightAware Approximate
02:56AM 21.4258 -76.1095 146° Southeast  Level FlightAware Approximate
02:57AM 21.3211 -76.0333 146° Southeast  Level FlightAware Approximate
02:58AM 21.2164 -75.9572 146° Southeast  Level FlightAware Approximate
02:59AM 21.1116 -75.8812 146° Southeast  Level FlightAware Approximate
03:00AM 21.0068 -75.8053 146° Southeast  Level FlightAware Approximate
03:01AM 20.9019 -75.7295 146° Southeast  Level FlightAware Approximate
03:02AM 20.7970 -75.6538 146° Southeast  Level FlightAware Approximate
03:03AM 20.6921 -75.5783 146° Southeast  Level FlightAware Approximate
03:04AM 20.5872 -75.5028 146° Southeast  Level FlightAware Approximate
03:05AM 20.4822 -75.4275 146° Southeast  Level FlightAware Approximate
03:06AM 20.3771 -75.3522 146° Southeast  Level FlightAware Approximate
03:07AM 20.2721 -75.2771 146° Southeast  Level FlightAware Approximate
03:08AM 20.1670 -75.2020 146° Southeast  Level FlightAware Approximate
03:09AM 20.0619 -75.1271 146° Southeast  Level FlightAware Approximate
03:10AM 19.9568 -75.0522 146° Southeast  Level FlightAware Approximate
03:11AM 19.8516 -74.9775 146° Southeast  Level FlightAware Approximate
03:12AM 19.7464 -74.9028 146° Southeast  Level FlightAware Approximate
03:13AM 19.6411 -74.8283 146° Southeast  Level FlightAware Approximate
03:14AM 19.5359 -74.7538 146° Southeast  Level FlightAware Approximate
03:15AM 19.4306 -74.6795 146° Southeast  Level FlightAware Approximate
03:16AM 19.3252 -74.6052 146° Southeast  Level FlightAware Approximate
03:17AM 19.2199 -74.5310 146° Southeast  Level FlightAware Approximate
03:18AM 19.1145 -74.4569 146° Southeast  Level FlightAware Approximate
03:19AM 19.0091 -74.3829 146° Southeast  Level FlightAware Approximate
03:20AM 18.9039 -74.3086 146° Southeast  Level FlightAware Approximate
03:21AM 18.7987 -74.2345 146° Southeast  Level FlightAware Approximate
03:22AM 18.6934 -74.1604 146° Southeast  Level FlightAware Approximate
03:23AM 18.5882 -74.0864 146° Southeast  Level FlightAware Approximate
03:24AM 18.4828 -74.0125 146° Southeast  Level FlightAware Approximate
03:25AM 18.3775 -73.9387 146° Southeast  Level FlightAware Approximate
03:26AM 18.2721 -73.8649 146° Southeast  Level FlightAware Approximate
03:27AM 18.1667 -73.7913 146° Southeast  Level FlightAware Approximate
03:28AM 18.0613 -73.7178 146° Southeast  Level FlightAware Approximate
03:29AM 17.9558 -73.6443 146° Southeast  Level FlightAware Approximate
03:30AM 17.8503 -73.5709 146° Southeast  Level FlightAware Approximate
03:31AM 17.7448 -73.4977 147° Southeast  Level FlightAware Approximate
03:32AM 17.6393 -73.4245 147° Southeast  Level FlightAware Approximate
03:33AM 17.5337 -73.3514 147° Southeast  Level FlightAware Approximate
03:34AM 17.4281 -73.2783 147° Southeast  Level FlightAware Approximate
03:35AM 17.3225 -73.2054 147° Southeast  Level FlightAware Approximate
03:36AM 17.2168 -73.1325 147° Southeast  Level FlightAware Approximate
03:37AM 17.1112 -73.0598 147° Southeast  Level FlightAware Approximate
03:38AM 17.0054 -72.9871 147° Southeast  Level FlightAware Approximate
03:39AM 16.8995 -72.9148 147° Southeast  Level FlightAware Approximate
03:40AM 16.7935 -72.8427 147° Southeast  Level FlightAware Approximate
03:41AM 16.6875 -72.7707 147° Southeast  Level FlightAware Approximate
03:42AM 16.5814 -72.6987 147° Southeast  Level FlightAware Approximate
03:43AM 16.4753 -72.6268 147° Southeast  Level FlightAware Approximate
03:44AM 16.3692 -72.5550 147° Southeast  Level FlightAware Approximate
03:45AM 16.2631 -72.4832 147° Southeast  Level FlightAware Approximate
03:46AM 16.1570 -72.4116 147° Southeast  Level FlightAware Approximate
03:47AM 16.0508 -72.3400 147° Southeast  Level FlightAware Approximate
03:48AM 15.9446 -72.2685 147° Southeast  Level FlightAware Approximate
03:49AM 15.8384 -72.1971 147° Southeast  Level FlightAware Approximate
03:50AM 15.7322 -72.1257 147° Southeast  Level FlightAware Approximate
03:51AM 15.6259 -72.0544 147° Southeast  Level FlightAware Approximate
03:52AM 15.5196 -71.9832 147° Southeast  Level FlightAware Approximate
03:53AM 15.4133 -71.9121 147° Southeast  Level FlightAware Approximate
03:54AM 15.3070 -71.8410 147° Southeast  Level FlightAware Approximate
03:55AM 15.2006 -71.7700 147° Southeast  Level FlightAware Approximate
03:56AM 15.0942 -71.6991 147° Southeast  Level FlightAware Approximate
03:57AM 14.9878 -71.6283 147° Southeast  Level FlightAware Approximate
03:58AM 14.8814 -71.5575 147° Southeast  Level FlightAware Approximate
03:59AM 14.7750 -71.4868 147° Southeast  Level FlightAware Approximate
04:00AM 14.6685 -71.4161 147° Southeast  Level FlightAware Approximate
04:01AM 14.5620 -71.3456 147° Southeast  Level FlightAware Approximate
04:02AM 14.4555 -71.2751 147° Southeast  Level FlightAware Approximate
04:03AM 14.3490 -71.2046 147° Southeast  Level FlightAware Approximate
04:04AM 14.2424 -71.1343 147° Southeast  Level FlightAware Approximate
04:05AM 14.1359 -71.0640 147° Southeast  Level FlightAware Approximate
04:06AM 14.0293 -70.9937 147° Southeast  Level FlightAware Approximate
04:07AM 13.9227 -70.9236 147° Southeast  Level FlightAware Approximate
04:08AM 13.8160 -70.8535 147° Southeast  Level FlightAware Approximate
04:09AM 13.7094 -70.7834 147° Southeast  Level FlightAware Approximate
04:10AM 13.6027 -70.7134 147° Southeast  Level FlightAware Approximate
04:11AM 13.4960 -70.6435 147° Southeast  Level FlightAware Approximate
04:12AM 13.3893 -70.5737 148° Southeast  Level FlightAware Approximate
04:13AM 13.2826 -70.5039 148° Southeast  Level FlightAware Approximate
04:14AM 13.1759 -70.4342 148° Southeast  Level FlightAware Approximate
04:15AM 13.0691 -70.3645 148° Southeast  Level FlightAware Approximate
04:16AM 12.9623 -70.2949 148° Southeast  Level FlightAware Approximate
04:17AM 12.8555 -70.2253 148° Southeast  Level FlightAware Approximate
04:18AM 12.7487 -70.1558 148° Southeast  Level FlightAware Approximate
04:19AM 12.6419 -70.0864 148° Southeast  Level FlightAware Approximate
04:20AM 12.5350 -70.0170 148° Southeast  Level FlightAware Approximate
04:21AM 12.4281 -69.9477 148° Southeast  Level FlightAware Approximate
04:22AM 12.3212 -69.8785 148° Southeast  Level FlightAware Approximate
04:23AM 12.2143 -69.8093 148° Southeast  Level FlightAware Approximate
04:24AM 12.1074 -69.7402 148° Southeast  Level FlightAware Approximate
04:25AM 12.0004 -69.6712 148° Southeast  Level FlightAware Approximate
04:26AM 11.8934 -69.6023 148° Southeast  Level FlightAware Approximate
04:27AM 11.7863 -69.5334 148° Southeast  Level FlightAware Approximate
04:28AM 11.6793 -69.4646 148° Southeast  Level FlightAware Approximate
04:29AM 11.5722 -69.3958 148° Southeast  Level FlightAware Approximate
04:30AM 11.4651 -69.3271 148° Southeast  Level FlightAware Approximate
04:31AM 11.3580 -69.2584 148° Southeast  Level FlightAware Approximate
04:32AM 11.2509 -69.1898 148° Southeast  Level FlightAware Approximate
04:33AM 11.1438 -69.1213 148° Southeast  Level FlightAware Approximate
04:34AM 11.0366 -69.0527 148° Southeast  Level FlightAware Approximate
04:35AM 10.9294 -68.9843 148° Southeast  Level FlightAware Approximate
04:36AM 10.8223 -68.9159 148° Southeast  Level FlightAware Approximate
04:37AM 10.7150 -68.8475 148° Southeast  Level FlightAware Approximate
04:38AM 10.6078 -68.7792 148° Southeast  Level FlightAware Approximate
04:39AM 10.5006 -68.7109 148° Southeast  Level FlightAware Approximate
04:40AM 10.3934 -68.6427 148° Southeast  Level FlightAware Approximate
04:41AM 10.2861 -68.5745 148° Southeast  Level FlightAware Approximate
04:42AM 10.1787 -68.5066 148° Southeast  Level FlightAware Approximate
04:43AM 10.0713 -68.4387 148° Southeast  Level FlightAware Approximate
04:44AM 9.9639 -68.3708 148° Southeast  Level FlightAware Approximate
04:45AM 9.8565 -68.3030 148° Southeast  Level FlightAware Approximate
04:46AM 9.7491 -68.2353 148° Southeast  Level FlightAware Approximate
04:47AM 9.6416 -68.1675 148° Southeast  Level FlightAware Approximate
04:48AM 9.5343 -68.0996 148° Southeast  Level FlightAware Approximate
04:49AM 9.4270 -68.0317 148° Southeast  Level FlightAware Approximate
04:50AM 9.3196 -67.9639 148° Southeast  Level FlightAware Approximate
04:51AM 9.2122 -67.8961 148° Southeast  Level FlightAware Approximate
04:52AM 9.1048 -67.8284 148° Southeast  Level FlightAware Approximate
04:53AM 8.9975 -67.7607 148° Southeast  Level FlightAware Approximate
04:54AM 8.8901 -67.6930 148° Southeast  Level FlightAware Approximate
04:55AM 8.7827 -67.6253 148° Southeast  Level FlightAware Approximate
04:56AM 8.6754 -67.5577 148° Southeast  Level FlightAware Approximate
04:57AM 8.5680 -67.4901 148° Southeast  Level FlightAware Approximate
04:58AM 8.4605 -67.4225 148° Southeast  Level FlightAware Approximate
04:59AM 8.3531 -67.3550 148° Southeast  Level FlightAware Approximate
05:00AM 8.2457 -67.2875 148° Southeast  Level FlightAware Approximate
05:01AM 8.1382 -67.2200 148° Southeast  Level FlightAware Approximate
05:02AM 8.0308 -67.1526 148° Southeast  Level FlightAware Approximate
05:03AM 7.9233 -67.0853 148° Southeast  Level FlightAware Approximate
05:04AM 7.8158 -67.0179 148° Southeast  Level FlightAware Approximate
05:05AM 7.7083 -66.9506 148° Southeast  Level FlightAware Approximate
05:06AM 7.6008 -66.8833 148° Southeast  Level FlightAware Approximate
05:07AM 7.4933 -66.8161 148° Southeast  Level FlightAware Approximate
05:08AM 7.3858 -66.7489 148° Southeast  Level FlightAware Approximate
05:09AM 7.2783 -66.6817 148° Southeast  Level FlightAware Approximate
05:10AM 7.1707 -66.6146 148° Southeast  Level FlightAware Approximate
05:11AM 7.0632 -66.5475 148° Southeast  Level FlightAware Approximate
05:12AM 6.9556 -66.4804 148° Southeast  Level FlightAware Approximate
05:13AM 6.8481 -66.4133 148° Southeast  Level FlightAware Approximate
05:14AM 6.7405 -66.3463 148° Southeast  Level FlightAware Approximate
05:15AM 6.6329 -66.2793 148° Southeast  Level FlightAware Approximate
05:16AM 6.5253 -66.2124 148° Southeast  Level FlightAware Approximate
05:17AM 6.4177 -66.1454 148° Southeast  Level FlightAware Approximate
05:18AM 6.3101 -66.0785 148° Southeast  Level FlightAware Approximate
05:19AM 6.2024 -66.0117 148° Southeast  Level FlightAware Approximate
05:20AM 6.0948 -65.9448 148° Southeast  Level FlightAware Approximate
05:21AM 5.9872 -65.8780 148° Southeast  Level FlightAware Approximate
05:22AM 5.8795 -65.8112 148° Southeast  Level FlightAware Approximate
05:23AM 5.7719 -65.7444 148° Southeast  Level FlightAware Approximate
05:24AM 5.6642 -65.6777 148° Southeast  Level FlightAware Approximate
05:25AM 5.5565 -65.6110 148° Southeast  Level FlightAware Approximate
05:26AM 5.4489 -65.5443 148° Southeast  Level FlightAware Approximate
05:27AM 5.3412 -65.4776 148° Southeast  Level FlightAware Approximate
05:28AM 5.2335 -65.4110 148° Southeast  Level FlightAware Approximate
05:29AM 5.1258 -65.3444 148° Southeast  Level FlightAware Approximate
05:30AM 5.0181 -65.2777 148° Southeast  Level FlightAware Approximate
05:31AM 4.9103 -65.2112 148° Southeast  Level FlightAware Approximate
05:32AM 4.8026 -65.1446 148° Southeast  Level FlightAware Approximate
05:33AM 4.6949 -65.0781 148° Southeast  Level FlightAware Approximate
05:34AM 4.5872 -65.0116 148° Southeast  Level FlightAware Approximate
05:35AM 4.4794 -64.9451 148° Southeast  Level FlightAware Approximate
05:36AM 4.3717 -64.8786 148° Southeast  Level FlightAware Approximate
05:37AM 4.2639 -64.8121 148° Southeast  Level FlightAware Approximate
05:38AM 4.1562 -64.7457 148° Southeast  Level FlightAware Approximate
05:39AM 4.0484 -64.6793 148° Southeast  Level FlightAware Approximate
05:40AM 3.9406 -64.6128 148° Southeast  Level FlightAware Approximate
05:41AM 3.8329 -64.5465 148° Southeast  Level FlightAware Approximate
05:42AM 3.7251 -64.4801 148° Southeast  Level FlightAware Approximate
05:43AM 3.6173 -64.4137 148° Southeast  Level FlightAware Approximate
05:44AM 3.5095 -64.3474 148° Southeast  Level FlightAware Approximate
05:45AM 3.4017 -64.2811 148° Southeast  Level FlightAware Approximate
05:46AM 3.2939 -64.2148 148° Southeast  Level FlightAware Approximate
05:47AM 3.1861 -64.1485 148° Southeast  Level FlightAware Approximate
05:48AM 3.0783 -64.0822 148° Southeast  Level FlightAware Approximate
05:49AM 2.9705 -64.0159 148° Southeast  Level FlightAware Approximate
05:50AM 2.8627 -63.9497 148° Southeast  Level FlightAware Approximate
05:51AM 2.7549 -63.8834 148° Southeast  Level FlightAware Approximate
05:52AM 2.6471 -63.8172 148° Southeast  Level FlightAware Approximate
05:53AM 2.5392 -63.7510 148° Southeast  Level FlightAware Approximate
05:54AM 2.4314 -63.6848 148° Southeast  Level FlightAware Approximate
05:55AM 2.3236 -63.6186 148° Southeast  Level FlightAware Approximate
05:56AM 2.2157 -63.5524 148° Southeast  Level FlightAware Approximate
05:57AM 2.1079 -63.4863 148° Southeast  Level FlightAware Approximate
05:58AM 2.0001 -63.4201 148° Southeast  Level FlightAware Approximate
05:59AM 1.8922 -63.3539 148° Southeast  Level FlightAware Approximate
06:00AM 1.7844 -63.2878 148° Southeast  Level FlightAware Approximate
06:01AM 1.6765 -63.2216 148° Southeast  Level FlightAware Approximate
06:02AM 1.5687 -63.1555 148° Southeast  Level FlightAware Approximate
06:03AM 1.4608 -63.0894 148° Southeast  Level FlightAware Approximate
06:04AM 1.3530 -63.0233 148° Southeast  Level FlightAware Approximate
06:05AM 1.2451 -62.9571 148° Southeast  Level FlightAware Approximate
06:06AM 1.1372 -62.8910 148° Southeast  Level FlightAware Approximate
06:07AM 1.0294 -62.8249 149° Southeast  Level FlightAware Approximate
06:08AM 0.9215 -62.7588 149° Southeast  Level FlightAware Approximate
06:09AM 0.8137 -62.6927 149° Southeast  Level FlightAware Approximate
06:10AM 0.7058 -62.6267 149° Southeast  Level FlightAware Approximate
06:11AM 0.5979 -62.5606 149° Southeast  Level FlightAware Approximate
06:12AM 0.4901 -62.4945 149° Southeast  Level FlightAware Approximate
06:13AM 0.3822 -62.4284 149° Southeast  Level FlightAware Approximate
06:14AM 0.2743 -62.3623 149° Southeast  Level FlightAware Approximate
06:15AM 0.1665 -62.2962 149° Southeast  Level FlightAware Approximate
06:16AM 0.0586 -62.2301 149° Southeast  Level FlightAware Approximate
06:17AM -0.0493 -62.1641 149° Southeast  Level FlightAware Approximate
06:18AM -0.1571 -62.0980 149° Southeast  Level FlightAware Approximate
06:19AM -0.2650 -62.0319 149° Southeast  Level FlightAware Approximate
06:20AM -0.3729 -61.9658 149° Southeast  Level FlightAware Approximate
06:21AM -0.4807 -61.8997 149° Southeast  Level FlightAware Approximate
06:22AM -0.5886 -61.8337 149° Southeast  Level FlightAware Approximate
06:23AM -0.6965 -61.7676 149° Southeast  Level FlightAware Approximate
06:24AM -0.8043 -61.7015 149° Southeast  Level FlightAware Approximate
06:25AM -0.9122 -61.6354 149° Southeast  Level FlightAware Approximate
06:26AM -1.0200 -61.5693 149° Southeast  Level FlightAware Approximate
06:27AM -1.1279 -61.5032 149° Southeast  Level FlightAware Approximate
06:28AM -1.2358 -61.4371 149° Southeast  Level FlightAware Approximate
06:29AM -1.3436 -61.3710 148° Southeast  Level FlightAware Approximate
06:30AM -1.4515 -61.3049 148° Southeast  Level FlightAware Approximate
06:31AM -1.5593 -61.2387 148° Southeast  Level FlightAware Approximate
06:32AM -1.6672 -61.1726 148° Southeast  Level FlightAware Approximate
06:33AM -1.7750 -61.1064 148° Southeast  Level FlightAware Approximate
06:34AM -1.8829 -61.0403 148° Southeast  Level FlightAware Approximate
06:35AM -1.9907 -60.9741 148° Southeast  Level FlightAware Approximate
06:36AM -2.0986 -60.9080 148° Southeast  Level FlightAware Approximate
06:37AM -2.2064 -60.8418 148° Southeast  Level FlightAware Approximate
06:38AM -2.3142 -60.7756 148° Southeast  Level FlightAware Approximate
06:39AM -2.4221 -60.7094 148° Southeast  Level FlightAware Approximate
06:40AM -2.5299 -60.6432 148° Southeast  Level FlightAware Approximate
06:41AM -2.6377 -60.5770 148° Southeast  Level FlightAware Approximate
06:42AM -2.7455 -60.5108 148° Southeast  Level FlightAware Approximate
06:43AM -2.8534 -60.4446 148° Southeast  Level FlightAware Approximate
06:44AM -2.9612 -60.3783 148° Southeast  Level FlightAware Approximate
06:45AM -3.0690 -60.3120 148° Southeast  Level FlightAware Approximate
06:46AM -3.1768 -60.2458 148° Southeast  Level FlightAware Approximate
06:47AM -3.2846 -60.1795 148° Southeast  Level FlightAware Approximate
06:48AM -3.3924 -60.1132 148° Southeast  Level FlightAware Approximate
06:49AM -3.5002 -60.0468 148° Southeast  Level FlightAware Approximate
06:50AM -3.6080 -59.9805 148° Southeast  Level FlightAware Approximate
06:51AM -3.7157 -59.9142 148° Southeast  Level FlightAware Approximate
06:52AM -3.8235 -59.8478 148° Southeast  Level FlightAware Approximate
06:53AM -3.9313 -59.7814 148° Southeast  Level FlightAware Approximate
06:54AM -4.0391 -59.7150 148° Southeast  Level FlightAware Approximate
06:55AM -4.1468 -59.6486 148° Southeast  Level FlightAware Approximate
06:56AM -4.2546 -59.5821 148° Southeast  Level FlightAware Approximate
06:57AM -4.3623 -59.5157 148° Southeast  Level FlightAware Approximate
06:58AM -4.4701 -59.4492 148° Southeast  Level FlightAware Approximate
06:59AM -4.5778 -59.3827 148° Southeast  Level FlightAware Approximate
07:00AM -4.6856 -59.3162 148° Southeast  Level FlightAware Approximate
07:01AM -4.7933 -59.2497 148° Southeast  Level FlightAware Approximate
07:02AM -4.9010 -59.1831 148° Southeast  Level FlightAware Approximate
07:03AM -5.0087 -59.1166 148° Southeast  Level FlightAware Approximate
07:04AM -5.1164 -59.0499 148° Southeast  Level FlightAware Approximate
07:05AM -5.2241 -58.9833 148° Southeast  Level FlightAware Approximate
07:06AM -5.3318 -58.9167 148° Southeast  Level FlightAware Approximate
07:07AM -5.4395 -58.8500 148° Southeast  Level FlightAware Approximate
07:08AM -5.5472 -58.7833 148° Southeast  Level FlightAware Approximate
07:09AM -5.6549 -58.7166 148° Southeast  Level FlightAware Approximate
07:10AM -5.7625 -58.6499 148° Southeast  Level FlightAware Approximate
07:11AM -5.8702 -58.5831 148° Southeast  Level FlightAware Approximate
07:12AM -5.9778 -58.5163 148° Southeast  Level FlightAware Approximate
07:13AM -6.0855 -58.4495 148° Southeast  Level FlightAware Approximate
07:14AM -6.1931 -58.3826 148° Southeast  Level FlightAware Approximate
07:15AM -6.3007 -58.3158 148° Southeast  Level FlightAware Approximate
07:16AM -6.4083 -58.2489 148° Southeast  Level FlightAware Approximate
07:17AM -6.5160 -58.1819 148° Southeast  Level FlightAware Approximate
07:18AM -6.6235 -58.1150 148° Southeast  Level FlightAware Approximate
07:19AM -6.7311 -58.0480 148° Southeast  Level FlightAware Approximate
07:20AM -6.8387 -57.9810 148° Southeast  Level FlightAware Approximate
07:21AM -6.9463 -57.9139 148° Southeast  Level FlightAware Approximate
07:22AM -7.0539 -57.8469 148° Southeast  Level FlightAware Approximate
07:23AM -7.1614 -57.7797 148° Southeast  Level FlightAware Approximate
07:24AM -7.2689 -57.7126 148° Southeast  Level FlightAware Approximate
07:25AM -7.3765 -57.6454 148° Southeast  Level FlightAware Approximate
07:26AM -7.4840 -57.5782 148° Southeast  Level FlightAware Approximate
07:27AM -7.5915 -57.5110 148° Southeast  Level FlightAware Approximate
07:28AM -7.6990 -57.4437 148° Southeast  Level FlightAware Approximate
07:29AM -7.8065 -57.3764 148° Southeast  Level FlightAware Approximate
07:30AM -7.9140 -57.3091 148° Southeast  Level FlightAware Approximate
07:31AM -8.0214 -57.2417 148° Southeast  Level FlightAware Approximate
07:32AM -8.1289 -57.1743 148° Southeast  Level FlightAware Approximate
07:33AM -8.2364 -57.1068 148° Southeast  Level FlightAware Approximate
07:34AM -8.3438 -57.0394 148° Southeast  Level FlightAware Approximate
07:35AM -8.4512 -56.9719 148° Southeast  Level FlightAware Approximate
07:36AM -8.5586 -56.9043 148° Southeast  Level FlightAware Approximate
07:37AM -8.6660 -56.8367 148° Southeast  Level FlightAware Approximate
07:38AM -8.7734 -56.7691 148° Southeast  Level FlightAware Approximate
07:39AM -8.8808 -56.7014 148° Southeast  Level FlightAware Approximate
07:40AM -8.9882 -56.6337 148° Southeast  Level FlightAware Approximate
07:41AM -9.0955 -56.5659 148° Southeast  Level FlightAware Approximate
07:42AM -9.2029 -56.4981 148° Southeast  Level FlightAware Approximate
07:43AM -9.3102 -56.4303 148° Southeast  Level FlightAware Approximate
07:44AM -9.4175 -56.3624 148° Southeast  Level FlightAware Approximate
07:45AM -9.5248 -56.2945 148° Southeast  Level FlightAware Approximate
07:46AM -9.6321 -56.2265 148° Southeast  Level FlightAware Approximate
07:47AM -9.7394 -56.1585 148° Southeast  Level FlightAware Approximate
07:48AM -9.8466 -56.0905 148° Southeast  Level FlightAware Approximate
07:49AM -9.9539 -56.0224 148° Southeast  Level FlightAware Approximate
07:50AM -10.0611 -55.9543 148° Southeast  Level FlightAware Approximate
07:51AM -10.1683 -55.8861 148° Southeast  Level FlightAware Approximate
07:52AM -10.2755 -55.8178 148° Southeast  Level FlightAware Approximate
07:53AM -10.3827 -55.7496 148° Southeast  Level FlightAware Approximate
07:54AM -10.4899 -55.6812 148° Southeast  Level FlightAware Approximate
07:55AM -10.5971 -55.6129 148° Southeast  Level FlightAware Approximate
07:56AM -10.7042 -55.5444 148° Southeast  Level FlightAware Approximate
07:57AM -10.8113 -55.4760 148° Southeast  Level FlightAware Approximate
07:58AM -10.9185 -55.4075 148° Southeast  Level FlightAware Approximate
07:59AM -11.0256 -55.3389 148° Southeast  Level FlightAware Approximate
08:00AM -11.1327 -55.2703 148° Southeast  Level FlightAware Approximate
08:01AM -11.2397 -55.2016 148° Southeast  Level FlightAware Approximate
08:02AM -11.3468 -55.1329 148° Southeast  Level FlightAware Approximate
08:03AM -11.4538 -55.0642 148° Southeast  Level FlightAware Approximate
08:04AM -11.5608 -54.9953 148° Southeast  Level FlightAware Approximate
08:05AM -11.6678 -54.9265 148° Southeast  Level FlightAware Approximate
08:06AM -11.7748 -54.8575 148° Southeast  Level FlightAware Approximate
08:07AM -11.8818 -54.7886 148° Southeast  Level FlightAware Approximate
08:08AM -11.9888 -54.7195 148° Southeast  Level FlightAware Approximate
08:09AM -12.0957 -54.6504 148° Southeast  Level FlightAware Approximate
08:10AM -12.2026 -54.5813 148° Southeast  Level FlightAware Approximate
08:11AM -12.3096 -54.5121 148° Southeast  Level FlightAware Approximate
08:12AM -12.4164 -54.4428 148° Southeast  Level FlightAware Approximate
08:13AM -12.5233 -54.3735 148° Southeast  Level FlightAware Approximate
08:14AM -12.6302 -54.3042 148° Southeast  Level FlightAware Approximate
08:15AM -12.7370 -54.2347 148° Southeast  Level FlightAware Approximate
08:16AM -12.8438 -54.1652 148° Southeast  Level FlightAware Approximate
08:17AM -12.9506 -54.0957 148° Southeast  Level FlightAware Approximate
08:18AM -13.0574 -54.0261 148° Southeast  Level FlightAware Approximate
08:19AM -13.1642 -53.9565 148° Southeast  Level FlightAware Approximate
08:20AM -13.2709 -53.8867 148° Southeast  Level FlightAware Approximate
08:21AM -13.3776 -53.8169 148° Southeast  Level FlightAware Approximate
08:22AM -13.4843 -53.7471 148° Southeast  Level FlightAware Approximate
08:23AM -13.5910 -53.6772 148° Southeast  Level FlightAware Approximate
08:24AM -13.6977 -53.6072 147° Southeast  Level FlightAware Approximate
08:25AM -13.8043 -53.5372 147° Southeast  Level FlightAware Approximate
08:26AM -13.9110 -53.4671 147° Southeast  Level FlightAware Approximate
08:27AM -14.0176 -53.3969 147° Southeast  Level FlightAware Approximate
08:28AM -14.1242 -53.3267 147° Southeast  Level FlightAware Approximate
08:29AM -14.2308 -53.2564 147° Southeast  Level FlightAware Approximate
08:30AM -14.3373 -53.1860 147° Southeast  Level FlightAware Approximate
08:31AM -14.4438 -53.1156 147° Southeast  Level FlightAware Approximate
08:32AM -14.5503 -53.0451 147° Southeast  Level FlightAware Approximate
08:33AM -14.6568 -52.9745 147° Southeast  Level FlightAware Approximate
08:34AM -14.7633 -52.9039 147° Southeast  Level FlightAware Approximate
08:35AM -14.8697 -52.8332 147° Southeast  Level FlightAware Approximate
08:36AM -14.9761 -52.7624 147° Southeast  Level FlightAware Approximate
08:37AM -15.0825 -52.6916 147° Southeast  Level FlightAware Approximate
08:38AM -15.1889 -52.6206 147° Southeast  Level FlightAware Approximate
08:39AM -15.2953 -52.5496 147° Southeast  Level FlightAware Approximate
08:40AM -15.4016 -52.4786 147° Southeast  Level FlightAware Approximate
08:41AM -15.5079 -52.4075 147° Southeast  Level FlightAware Approximate
08:42AM -15.6142 -52.3363 147° Southeast  Level FlightAware Approximate
08:43AM -15.7205 -52.2650 147° Southeast  Level FlightAware Approximate
08:44AM -15.8267 -52.1936 147° Southeast  Level FlightAware Approximate
08:45AM -15.9329 -52.1222 147° Southeast  Level FlightAware Approximate
08:46AM -16.0391 -52.0507 147° Southeast  Level FlightAware Approximate
08:47AM -16.1453 -51.9791 147° Southeast  Level FlightAware Approximate
08:48AM -16.2514 -51.9075 147° Southeast  Level FlightAware Approximate
08:49AM -16.3575 -51.8357 147° Southeast  Level FlightAware Approximate
08:50AM -16.4636 -51.7639 147° Southeast  Level FlightAware Approximate
08:51AM -16.5697 -51.6920 147° Southeast  Level FlightAware Approximate
08:52AM -16.6758 -51.6201 147° Southeast  Level FlightAware Approximate
08:53AM -16.7818 -51.5480 147° Southeast  Level FlightAware Approximate
08:54AM -16.8878 -51.4759 147° Southeast  Level FlightAware Approximate
08:55AM -16.9937 -51.4037 147° Southeast  Level FlightAware Approximate
08:56AM -17.0997 -51.3314 147° Southeast  Level FlightAware Approximate
08:57AM -17.2056 -51.2590 147° Southeast  Level FlightAware Approximate
08:58AM -17.3115 -51.1865 147° Southeast  Level FlightAware Approximate
08:59AM -17.4174 -51.1140 147° Southeast  Level FlightAware Approximate
09:00AM -17.5232 -51.0414 147° Southeast  Level FlightAware Approximate
09:01AM -17.6290 -50.9687 147° Southeast  Level FlightAware Approximate
09:02AM -17.7348 -50.8959 147° Southeast  Level FlightAware Approximate
09:03AM -17.8406 -50.8230 147° Southeast  Level FlightAware Approximate
09:04AM -17.9463 -50.7500 147° Southeast  Level FlightAware Approximate
09:05AM -18.0520 -50.6769 147° Southeast  Level FlightAware Approximate
09:06AM -18.1577 -50.6038 147° Southeast  Level FlightAware Approximate
09:07AM -18.2634 -50.5306 147° Southeast  Level FlightAware Approximate
09:08AM -18.3690 -50.4573 147° Southeast  Level FlightAware Approximate
09:09AM -18.4746 -50.3839 147° Southeast  Level FlightAware Approximate
09:10AM -18.5802 -50.3103 147° Southeast  Level FlightAware Approximate
09:11AM -18.6857 -50.2368 147° Southeast  Level FlightAware Approximate
09:12AM -18.7912 -50.1631 147° Southeast  Level FlightAware Approximate
09:13AM -18.8967 -50.0893 147° Southeast  Level FlightAware Approximate
09:14AM -19.0021 -50.0154 146° Southeast  Level FlightAware Approximate
09:15AM -19.1076 -49.9415 146° Southeast  Level FlightAware Approximate
09:16AM -19.2129 -49.8674 146° Southeast  Level FlightAware Approximate
09:17AM -19.3183 -49.7933 146° Southeast  Level FlightAware Approximate
09:18AM -19.4236 -49.7190 146° Southeast  Level FlightAware Approximate
09:19AM -19.5289 -49.6446 146° Southeast  Level FlightAware Approximate
09:20AM -19.6342 -49.5702 146° Southeast  Level FlightAware Approximate
09:21AM -19.7395 -49.4957 146° Southeast  Level FlightAware Approximate
09:22AM -19.8447 -49.4210 146° Southeast  Level FlightAware Approximate
09:23AM -19.9498 -49.3463 146° Southeast  Level FlightAware Approximate
09:24AM -20.0550 -49.2715 146° Southeast  Level FlightAware Approximate
09:25AM -20.1601 -49.1965 146° Southeast  Level FlightAware Approximate
09:26AM -20.2652 -49.1215 146° Southeast  Level FlightAware Approximate
09:27AM -20.3703 -49.0463 146° Southeast  Level FlightAware Approximate
09:28AM -20.4753 -48.9711 146° Southeast  Level FlightAware Approximate
09:29AM -20.5803 -48.8957 146° Southeast  Level FlightAware Approximate
09:30AM -20.6852 -48.8203 146° Southeast  Level FlightAware Approximate
09:31AM -20.7902 -48.7448 146° Southeast  Level FlightAware Approximate
09:32AM -20.8951 -48.6691 146° Southeast  Level FlightAware Approximate
09:33AM -20.9999 -48.5933 146° Southeast  Level FlightAware Approximate
09:34AM -21.1047 -48.5175 146° Southeast  Level FlightAware Approximate
09:35AM -21.2095 -48.4415 146° Southeast  Level FlightAware Approximate
09:36AM -21.3145 -48.3658 146° Southeast  Level FlightAware Approximate
09:37AM -21.4199 -48.2906 146° Southeast  Level FlightAware Approximate
09:38AM -21.5248 -48.2147 145° Southeast  Level FlightAware Approximate
09:39AM -21.6278 -48.1358 144° Southeast  Level FlightAware Approximate
09:40AM -21.7305 -48.0563 145° Southeast  Level FlightAware Approximate
09:41AM -21.8343 -47.9784 145° Southeast  Level FlightAware Approximate
09:42AM -21.9395 -47.9027 146° Southeast  Level FlightAware Approximate
09:43AM -22.0450 -47.8274 147° Southeast  Level FlightAware Approximate
09:44AM -22.1500 -47.7512 146° Southeast  Level FlightAware Approximate
09:45AM -22.2546 -47.6745 146° Southeast  Level FlightAware Approximate
09:46AM -22.3591 -47.5974 145° Southeast  Level FlightAware Approximate
09:47AM -22.4630 -47.5194 145° Southeast  Level FlightAware Approximate
09:48AM -22.5680 -47.4430 146° Southeast  Level FlightAware Approximate
09:49AM -22.6704 -47.3630 137° Southeast  Level FlightAware Approximate
09:50AM -22.7761 -47.2882 148° Southeast  Level FlightAware Approximate
09:51AM -22.8796 -47.2112 145° Southeast  Level FlightAware Approximate
09:52AM -22.9879 -47.1406 151° Southeast  Level FlightAware Approximate
09:53AM -23.0000 -47.1333 151° Southeast  Level FlightAware Approximate
09:54AM -23.0082 -47.1347 151° Southeast  Level Estimated
09:55AM -23.0082 -47.1347 151° Southeast  Level Estimated
09:56AM -23.0082 -47.1347 151° Southeast  Level Estimated
09:57AM -23.0082 -47.1347 151° Southeast  Level Estimated
09:58AM -23.0082 -47.1347 151° Southeast  Level Estimated
09:59AM -23.0082 -47.1347 151° Southeast  Level Estimated
10:00AM -23.0082 -47.1347 151° Southeast  Level Estimated
10:01AM -23.0082 -47.1347 151° Southeast  Level Estimated
10:02AM -23.0082 -47.1347 151° Southeast  Level Estimated
10:03AM -23.0082 -47.1347 151° Southeast  Level Estimated
10:04AM -23.0082 -47.1347 151° Southeast  Level Estimated
10:05AM -23.0082 -47.1347 151° Southeast  Level Estimated